createdAt,value
2017-09-24T00:01:04.588Z,102025
2017-09-24T00:03:30.849Z,102024
2017-09-24T00:05:57.114Z,102027
2017-09-24T00:08:23.360Z,102023
2017-09-24T00:10:49.921Z,102021
2017-09-24T00:13:16.167Z,102015
2017-09-24T00:15:42.422Z,102011
2017-09-24T00:18:09.422Z,102008
2017-09-24T00:20:36.394Z,102010
2017-09-24T00:23:03.390Z,102014
2017-09-24T00:25:29.811Z,102009
2017-09-24T00:27:56.073Z,102005
2017-09-24T00:30:22.663Z,102003
2017-09-24T00:32:48.939Z,102004
2017-09-24T00:35:15.261Z,102008
2017-09-24T00:37:41.499Z,102001
2017-09-24T00:40:07.773Z,102004
2017-09-24T00:42:34.753Z,102007
2017-09-24T00:45:00.986Z,101999
2017-09-24T00:47:27.528Z,102004
2017-09-24T00:49:53.758Z,102006
2017-09-24T00:52:20.037Z,102000
2017-09-24T00:54:47.071Z,101998
2017-09-24T00:57:14.090Z,101996
2017-09-24T00:59:40.364Z,102001
2017-09-24T01:02:06.626Z,101998
2017-09-24T01:04:32.925Z,101997
2017-09-24T01:07:02.713Z,101999
2017-09-24T01:09:29.737Z,101999
2017-09-24T01:11:55.956Z,102000
2017-09-24T01:14:22.210Z,102001
2017-09-24T01:16:49.213Z,102006
2017-09-24T01:19:15.513Z,102003
2017-09-24T01:21:41.764Z,102003
2017-09-24T01:24:08.088Z,102010
2017-09-24T01:26:34.357Z,101998
2017-09-24T01:29:00.735Z,101995
2017-09-24T01:31:27.834Z,101992
2017-09-24T01:33:54.122Z,101999
2017-09-24T01:36:20.382Z,102003
2017-09-24T01:38:46.667Z,102000
2017-09-24T01:41:13.657Z,101997
2017-09-24T01:43:39.946Z,102006
2017-09-24T01:46:06.225Z,102002
2017-09-24T01:48:32.469Z,102001
2017-09-24T01:50:58.969Z,102002
2017-09-24T01:53:25.252Z,101999
2017-09-24T01:55:52.247Z,101999
2017-09-24T01:58:18.506Z,101999
2017-09-24T02:00:44.813Z,101999
2017-09-24T02:03:11.041Z,101993
2017-09-24T02:05:37.577Z,101994
2017-09-24T02:08:03.803Z,101994
2017-09-24T02:10:30.029Z,101995
2017-09-24T02:12:56.261Z,101999
2017-09-24T02:15:23.217Z,101994
2017-09-24T02:17:49.457Z,101994
2017-09-24T02:20:15.698Z,101998
2017-09-24T02:22:42.650Z,101992
2017-09-24T02:25:09.603Z,101987
2017-09-24T02:27:36.696Z,101986
2017-09-24T02:30:02.931Z,101976
2017-09-24T02:32:29.154Z,101976
2017-09-24T02:34:55.687Z,101972
2017-09-24T02:37:21.905Z,101971
2017-09-24T02:39:48.118Z,101967
2017-09-24T02:42:14.793Z,101957
2017-09-24T02:44:41.027Z,101961
2017-09-24T02:47:07.263Z,101972
2017-09-24T02:49:33.674Z,101970
2017-09-24T02:51:59.917Z,101979
2017-09-24T02:54:26.147Z,101970
2017-09-24T02:56:52.394Z,101975
2017-09-24T02:59:19.370Z,101967
2017-09-24T03:01:45.618Z,101969
2017-09-24T03:04:11.884Z,101961
2017-09-24T03:06:38.101Z,101963
2017-09-24T03:09:04.436Z,101964
2017-09-24T03:11:30.678Z,101962
2017-09-24T03:13:56.901Z,101961
2017-09-24T03:16:23.138Z,101957
2017-09-24T03:18:50.107Z,101957
2017-09-24T03:21:16.324Z,101962
2017-09-24T03:23:43.326Z,101958
2017-09-24T03:26:10.291Z,101957
2017-09-24T03:28:36.508Z,101961
2017-09-24T03:31:03.134Z,101958
2017-09-24T03:33:29.365Z,101957
2017-09-24T03:35:55.625Z,101960
2017-09-24T03:38:22.649Z,101965
2017-09-24T03:40:48.877Z,101971
2017-09-24T03:43:15.105Z,101969
2017-09-24T03:45:41.461Z,101980
2017-09-24T03:48:08.425Z,101977
2017-09-24T03:50:34.651Z,101978
2017-09-24T03:53:00.986Z,101978
2017-09-24T03:55:27.213Z,101981
2017-09-24T03:57:53.441Z,101973
2017-09-24T04:00:19.689Z,101969
2017-09-24T04:02:45.913Z,101973
2017-09-24T04:05:12.135Z,101973
2017-09-24T04:07:38.484Z,101971
2017-09-24T04:10:04.748Z,101967
2017-09-24T04:12:30.970Z,101968
2017-09-24T04:14:57.238Z,101969
2017-09-24T04:17:23.469Z,101972
2017-09-24T04:19:49.680Z,101977
2017-09-24T04:22:16.674Z,101979
2017-09-24T04:24:42.884Z,101980
2017-09-24T04:27:09.102Z,101989
2017-09-24T04:29:35.365Z,101977
2017-09-24T04:32:01.580Z,101990
2017-09-24T04:34:27.799Z,101988
2017-09-24T04:36:54.254Z,101993
2017-09-24T04:39:20.468Z,101990
2017-09-24T04:41:46.685Z,101987
2017-09-24T04:44:12.927Z,101985
2017-09-24T04:46:39.171Z,101985
2017-09-24T04:49:05.388Z,101988
2017-09-24T04:51:31.637Z,101987
2017-09-24T04:53:57.855Z,101987
2017-09-24T04:56:24.092Z,101985
2017-09-24T04:58:50.613Z,101981
2017-09-24T05:01:16.843Z,101983
2017-09-24T05:03:43.058Z,101982
2017-09-24T05:06:09.304Z,101987
2017-09-24T05:08:35.513Z,101982
2017-09-24T05:11:01.745Z,101982
2017-09-24T05:13:28.105Z,101979
2017-09-24T05:15:54.341Z,101981
2017-09-24T05:18:20.570Z,101981
2017-09-24T05:20:46.793Z,101987
2017-09-24T05:23:13.018Z,101984
2017-09-24T05:25:39.246Z,101987
2017-09-24T05:28:05.856Z,101981
2017-09-24T05:30:32.091Z,101985
2017-09-24T05:32:58.317Z,101990
2017-09-24T05:35:24.649Z,101985
2017-09-24T05:37:50.877Z,101989
2017-09-24T05:40:17.099Z,101987
2017-09-24T05:42:43.330Z,101985
2017-09-24T05:45:09.566Z,101983
2017-09-24T05:47:36.094Z,101984
2017-09-24T05:50:02.338Z,101984
2017-09-24T05:52:28.564Z,101978
2017-09-24T05:54:54.825Z,101976
2017-09-24T05:57:21.788Z,101978
2017-09-24T05:59:48.005Z,101979
2017-09-24T06:02:15.002Z,101979
2017-09-24T06:04:41.237Z,101984
2017-09-24T06:07:08.257Z,101977
2017-09-24T06:09:34.523Z,101977
2017-09-24T06:12:00.791Z,101985
2017-09-24T06:14:27.009Z,101983
2017-09-24T06:16:55.544Z,101987
2017-09-24T06:19:21.875Z,101987
2017-09-24T06:21:48.113Z,101990
2017-09-24T06:24:14.404Z,101993
2017-09-24T06:26:40.627Z,101989
2017-09-24T06:29:06.894Z,101993
2017-09-24T06:31:33.145Z,101995
2017-09-24T06:33:59.366Z,101993
2017-09-24T06:36:25.606Z,101992
2017-09-24T06:38:52.628Z,101988
2017-09-24T06:41:18.857Z,101989
2017-09-24T06:43:45.376Z,101992
2017-09-24T06:46:12.329Z,101999
2017-09-24T06:48:38.551Z,102000
2017-09-24T06:51:04.829Z,101998
2017-09-24T06:53:31.806Z,102007
2017-09-24T06:55:58.086Z,102013
2017-09-24T06:58:25.106Z,102010
2017-09-24T07:00:51.334Z,102015
2017-09-24T07:03:17.561Z,102014
2017-09-24T07:05:44.097Z,102017
2017-09-24T07:08:10.328Z,102009
2017-09-24T07:10:36.797Z,102014
2017-09-24T07:13:03.080Z,102012
2017-09-24T07:15:29.354Z,102014
2017-09-24T07:17:56.321Z,102012
2017-09-24T07:20:22.794Z,102012
2017-09-24T07:22:49.020Z,102018
2017-09-24T07:25:15.609Z,102021
2017-09-24T07:27:42.033Z,102014
2017-09-24T07:30:09.033Z,102014
2017-09-24T07:32:35.319Z,102016
2017-09-24T07:35:01.798Z,102016
2017-09-24T07:37:28.057Z,102014
2017-09-24T07:39:55.246Z,102014
2017-09-24T07:42:21.646Z,102016
2017-09-24T07:44:48.645Z,102020
2017-09-24T07:47:15.037Z,102020
2017-09-24T07:49:42.492Z,102018
2017-09-24T07:52:09.851Z,102021
2017-09-24T07:54:37.054Z,102021
2017-09-24T07:57:04.044Z,102024
2017-09-24T07:59:31.019Z,102024
2017-09-24T08:01:57.242Z,102022
2017-09-24T08:04:23.498Z,102023
2017-09-24T08:06:49.721Z,102020
2017-09-24T08:09:15.930Z,102022
2017-09-24T08:11:42.321Z,102018
2017-09-24T08:14:09.294Z,102019
2017-09-24T08:16:35.972Z,102023
2017-09-24T08:19:02.328Z,102024
2017-09-24T08:21:29.302Z,102024
2017-09-24T08:23:55.815Z,102026
2017-09-24T08:26:22.694Z,102028
2017-09-24T08:28:48.918Z,102030
2017-09-24T08:31:15.175Z,102032
2017-09-24T08:33:41.433Z,102035
2017-09-24T08:36:07.657Z,102029
2017-09-24T08:38:33.888Z,102025
2017-09-24T08:41:00.144Z,102025
2017-09-24T08:43:27.134Z,102030
2017-09-24T08:45:53.362Z,102036
2017-09-24T08:48:19.810Z,102036
2017-09-24T08:50:46.064Z,102038
2017-09-24T08:53:13.044Z,102036
2017-09-24T08:55:39.363Z,102044
2017-09-24T08:58:06.459Z,102038
2017-09-24T09:00:32.783Z,102041
2017-09-24T09:02:59.145Z,102037
2017-09-24T09:05:26.127Z,102036
2017-09-24T09:07:52.352Z,102036
2017-09-24T09:10:18.819Z,102032
2017-09-24T09:12:45.058Z,102035
2017-09-24T09:15:11.346Z,102034
2017-09-24T09:17:38.413Z,102038
2017-09-24T09:20:04.802Z,102034
2017-09-24T09:22:32.675Z,102037
2017-09-24T09:24:59.223Z,102043
2017-09-24T09:27:25.462Z,102043
2017-09-24T09:29:51.901Z,102042
2017-09-24T09:32:18.259Z,102040
2017-09-24T09:35:03.185Z,102045
2017-09-24T09:37:29.426Z,102042
2017-09-24T09:39:55.656Z,102052
2017-09-24T09:42:21.901Z,102045
2017-09-24T09:44:50.150Z,102043
2017-09-24T09:47:25.636Z,102050
2017-09-24T09:49:51.923Z,102050
2017-09-24T09:52:18.218Z,102054
2017-09-24T09:54:45.221Z,102058
2017-09-24T09:57:11.763Z,102057
2017-09-24T09:59:38.024Z,102061
2017-09-24T10:02:05.021Z,102060
2017-09-24T10:04:31.284Z,102063
2017-09-24T10:07:16.041Z,102062
2017-09-24T10:10:00.809Z,102056
2017-09-24T10:12:27.065Z,102052
2017-09-24T10:14:54.053Z,102054
2017-09-24T10:17:20.324Z,102057
2017-09-24T10:19:47.329Z,102055
2017-09-24T10:22:13.553Z,102051
2017-09-24T10:24:39.954Z,102052
2017-09-24T10:27:06.203Z,102050
2017-09-24T10:29:32.542Z,102051
2017-09-24T10:32:02.866Z,102051
2017-09-24T10:34:29.114Z,102053
2017-09-24T10:36:55.377Z,102044
2017-09-24T10:39:22.649Z,102040
2017-09-24T10:41:48.894Z,102046
2017-09-24T10:44:15.134Z,102042
2017-09-24T10:46:41.400Z,102043
2017-09-24T10:49:07.651Z,102041
2017-09-24T10:51:34.649Z,102038
2017-09-24T10:54:00.917Z,102043
2017-09-24T10:56:27.901Z,102046
2017-09-24T10:58:54.276Z,102047
2017-09-24T11:01:20.510Z,102051
2017-09-24T11:03:46.737Z,102047
2017-09-24T11:06:13.094Z,102046
2017-09-24T11:08:40.073Z,102052
2017-09-24T11:11:07.053Z,102049
2017-09-24T11:13:33.310Z,102045
2017-09-24T11:16:00.287Z,102044
2017-09-24T11:18:26.521Z,102048
2017-09-24T11:20:52.789Z,102048
2017-09-24T11:23:19.027Z,102049
2017-09-24T11:25:46.004Z,102054
2017-09-24T11:28:12.269Z,102053
2017-09-24T11:30:38.501Z,102055
2017-09-24T11:33:04.738Z,102054
2017-09-24T11:35:30.974Z,102057
2017-09-24T11:37:57.217Z,102058
2017-09-24T11:40:24.537Z,102063
2017-09-24T11:42:50.790Z,102067
2017-09-24T11:45:17.053Z,102063
2017-09-24T11:47:43.421Z,102060
2017-09-24T11:50:09.654Z,102061
2017-09-24T11:52:35.902Z,102058
2017-09-24T11:55:02.275Z,102060
2017-09-24T11:57:28.513Z,102058
2017-09-24T11:59:54.741Z,102064
2017-09-24T12:02:20.994Z,102065
2017-09-24T12:04:47.227Z,102065
2017-09-24T12:07:13.453Z,102066
2017-09-24T12:09:39.981Z,102065
2017-09-24T12:12:06.946Z,102066
2017-09-24T12:14:33.208Z,102069
2017-09-24T12:17:00.515Z,102067
2017-09-24T12:19:26.745Z,102068
2017-09-24T12:21:52.970Z,102067
2017-09-24T12:24:19.273Z,102065
2017-09-24T12:26:45.513Z,102072
2017-09-24T12:29:12.071Z,102071
2017-09-24T12:31:38.317Z,102066
2017-09-24T12:34:04.550Z,102066
2017-09-24T12:36:31.541Z,102067
2017-09-24T12:38:57.775Z,102061
2017-09-24T12:41:24.009Z,102060
2017-09-24T12:43:50.270Z,102063
2017-09-24T12:46:16.492Z,102064
2017-09-24T12:48:42.726Z,102064
2017-09-24T12:51:09.152Z,102069
2017-09-24T12:53:35.388Z,102075
2017-09-24T12:56:02.386Z,102072
2017-09-24T12:58:28.668Z,102081
2017-09-24T13:00:54.903Z,102074
2017-09-24T13:03:21.866Z,102074
2017-09-24T13:05:48.457Z,102077
2017-09-24T13:08:14.707Z,102079
2017-09-24T13:10:40.946Z,102073
2017-09-24T13:13:07.940Z,102069
2017-09-24T13:15:34.197Z,102063
2017-09-24T13:18:00.493Z,102063
2017-09-24T13:20:26.743Z,102060
2017-09-24T13:22:52.990Z,102058
2017-09-24T13:25:19.237Z,102051
2017-09-24T13:27:46.545Z,102045
2017-09-24T13:30:12.819Z,102040
2017-09-24T13:32:39.834Z,102036
2017-09-24T13:35:06.136Z,102036
2017-09-24T13:37:32.396Z,102039
2017-09-24T13:39:59.441Z,102032
2017-09-24T13:42:25.703Z,102035
2017-09-24T13:44:52.701Z,102034
2017-09-24T13:47:18.953Z,102039
2017-09-24T13:49:45.509Z,102046
2017-09-24T13:52:12.503Z,102049
2017-09-24T13:54:38.805Z,102055
2017-09-24T13:57:05.150Z,102051
2017-09-24T13:59:32.182Z,102054
2017-09-24T14:01:58.437Z,102050
2017-09-24T14:04:24.963Z,102051
2017-09-24T14:06:51.222Z,102049
2017-09-24T14:09:18.194Z,102049
2017-09-24T14:11:45.408Z,102048
2017-09-24T14:14:11.628Z,102047
2017-09-24T14:16:37.871Z,102048
2017-09-24T14:19:04.264Z,102046
2017-09-24T14:21:30.549Z,102046
2017-09-24T14:23:56.807Z,102046
2017-09-24T14:26:24.100Z,102047
2017-09-24T14:28:50.337Z,102042
2017-09-24T14:31:16.616Z,102038
2017-09-24T14:33:43.598Z,102038
2017-09-24T14:36:09.835Z,102043
2017-09-24T14:38:36.072Z,102043
2017-09-24T14:41:02.706Z,102045
2017-09-24T14:43:28.933Z,102041
2017-09-24T14:45:55.161Z,102045
2017-09-24T14:48:21.409Z,102045
2017-09-24T14:50:47.670Z,102043
2017-09-24T14:53:14.877Z,102044
2017-09-24T14:55:41.142Z,102043
2017-09-24T14:58:08.119Z,102049
2017-09-24T15:00:34.393Z,102050
2017-09-24T15:03:00.621Z,102047
2017-09-24T15:05:26.981Z,102043
2017-09-24T15:07:54.317Z,102042
2017-09-24T15:10:20.610Z,102049
2017-09-24T15:12:46.899Z,102046
2017-09-24T15:15:13.182Z,102048
2017-09-24T15:17:39.484Z,102050
2017-09-24T15:20:06.064Z,102049
2017-09-24T15:22:32.574Z,102046
2017-09-24T15:24:59.008Z,102049
2017-09-24T15:27:26.048Z,102049
2017-09-24T15:29:53.012Z,102053
2017-09-24T15:32:20.083Z,102049
2017-09-24T15:34:47.619Z,102047
2017-09-24T15:37:15.022Z,102045
2017-09-24T15:39:43.090Z,102043
2017-09-24T15:42:09.485Z,102049
2017-09-24T15:44:37.535Z,102051
2017-09-24T15:47:03.947Z,102049
2017-09-24T15:49:30.218Z,102052
2017-09-24T15:51:57.595Z,102055
2017-09-24T15:54:24.586Z,102055
2017-09-24T15:56:50.890Z,102055
2017-09-24T15:59:17.230Z,102061
2017-09-24T16:01:43.510Z,102059
2017-09-24T16:04:09.798Z,102057
2017-09-24T16:06:36.191Z,102056
2017-09-24T16:09:03.269Z,102059
2017-09-24T16:11:29.531Z,102057
2017-09-24T16:13:55.817Z,102059
2017-09-24T16:16:22.109Z,102054
2017-09-24T16:18:48.427Z,102061
2017-09-24T16:21:15.075Z,102061
2017-09-24T16:23:41.341Z,102065
2017-09-24T16:26:07.671Z,102068
2017-09-24T16:28:34.750Z,102073
2017-09-24T16:31:01.092Z,102076
2017-09-24T16:33:27.460Z,102082
2017-09-24T16:35:54.521Z,102079
2017-09-24T16:38:20.785Z,102081
2017-09-24T16:40:47.107Z,102084
2017-09-24T16:43:13.459Z,102078
2017-09-24T16:45:39.739Z,102075
2017-09-24T16:48:05.999Z,102075
2017-09-24T16:50:32.439Z,102071
2017-09-24T16:52:58.821Z,102075
2017-09-24T16:55:25.813Z,102074
2017-09-24T16:57:52.062Z,102073
2017-09-24T17:00:18.299Z,102072
2017-09-24T17:02:44.541Z,102074
2017-09-24T17:05:11.898Z,102076
2017-09-24T17:07:38.890Z,102077
2017-09-24T17:10:05.111Z,102074
2017-09-24T17:12:31.353Z,102081
2017-09-24T17:14:57.578Z,102079
2017-09-24T17:17:23.810Z,102079
2017-09-24T17:19:50.070Z,102080
2017-09-24T17:22:16.306Z,102081
2017-09-24T17:24:43.282Z,102087
2017-09-24T17:27:09.553Z,102087
2017-09-24T17:29:36.089Z,102084
2017-09-24T17:32:02.326Z,102090
2017-09-24T17:34:28.767Z,102089
2017-09-24T17:36:55.004Z,102094
2017-09-24T17:39:21.233Z,102096
2017-09-24T17:41:48.229Z,102102
2017-09-24T17:44:14.453Z,102101
2017-09-24T17:46:40.677Z,102103
2017-09-24T17:49:07.245Z,102100
2017-09-24T17:51:33.508Z,102097
2017-09-24T17:54:00.535Z,102098
2017-09-24T17:56:26.946Z,102098
2017-09-24T17:58:53.486Z,102101
2017-09-24T18:01:19.822Z,102099
2017-09-24T18:03:46.131Z,102103
2017-09-24T18:06:12.766Z,102104
2017-09-24T18:08:39.698Z,102106
2017-09-24T18:11:06.712Z,102106
2017-09-24T18:13:33.086Z,102107
2017-09-24T18:15:59.969Z,102109
2017-09-24T18:18:26.493Z,102114
2017-09-24T18:20:52.738Z,102117
2017-09-24T18:23:18.960Z,102118
2017-09-24T18:25:45.205Z,102118
2017-09-24T18:28:12.525Z,102121
2017-09-24T18:30:38.990Z,102121
2017-09-24T18:33:05.957Z,102126
2017-09-24T18:35:32.181Z,102121
2017-09-24T18:37:59.167Z,102123
2017-09-24T18:40:25.400Z,102120
2017-09-24T18:42:51.654Z,102126
2017-09-24T18:45:17.878Z,102128
2017-09-24T18:47:44.158Z,102129
2017-09-24T18:50:10.410Z,102131
2017-09-24T18:52:36.663Z,102131
2017-09-24T18:55:02.896Z,102136
2017-09-24T18:57:29.159Z,102129
2017-09-24T18:59:55.393Z,102127
2017-09-24T19:02:21.621Z,102125
2017-09-24T19:04:47.842Z,102117
2017-09-24T19:07:14.074Z,102122
2017-09-24T19:09:40.318Z,102123
2017-09-24T19:12:06.772Z,102123
2017-09-24T19:14:33.029Z,102116
2017-09-24T19:16:59.259Z,102124
2017-09-24T19:19:26.585Z,102126
2017-09-24T19:21:52.811Z,102126
2017-09-24T19:24:19.794Z,102128
2017-09-24T19:26:46.800Z,102130
2017-09-24T19:29:13.034Z,102133
2017-09-24T19:31:39.308Z,102130
2017-09-24T19:34:06.331Z,102132
2017-09-24T19:36:32.554Z,102134
2017-09-24T19:38:58.789Z,102133
2017-09-24T19:41:25.037Z,102137
2017-09-24T19:43:52.014Z,102135
2017-09-24T19:46:18.257Z,102136
2017-09-24T19:48:44.506Z,102138
2017-09-24T19:51:11.517Z,102140
2017-09-24T19:53:37.737Z,102141
2017-09-24T19:56:03.992Z,102134
2017-09-24T19:58:30.255Z,102139
2017-09-24T20:00:57.221Z,102142
2017-09-24T20:03:24.194Z,102147
2017-09-24T20:05:50.430Z,102146
2017-09-24T20:08:16.654Z,102143
2017-09-24T20:10:42.872Z,102146
2017-09-24T20:13:09.143Z,102151
2017-09-24T20:15:35.356Z,102148
2017-09-24T20:18:01.600Z,102145
2017-09-24T20:20:27.838Z,102152
2017-09-24T20:22:54.366Z,102148
2017-09-24T20:25:20.637Z,102143
2017-09-24T20:27:46.965Z,102146
2017-09-24T20:30:13.211Z,102141
2017-09-24T20:32:39.692Z,102148
2017-09-24T20:35:06.205Z,102149
2017-09-24T20:37:32.436Z,102153
2017-09-24T20:39:58.652Z,102155
2017-09-24T20:42:24.890Z,102151
2017-09-24T20:44:51.113Z,102156
2017-09-24T20:47:17.332Z,102156
2017-09-24T20:49:43.589Z,102153
2017-09-24T20:52:09.819Z,102158
2017-09-24T20:54:36.039Z,102156
2017-09-24T20:57:02.310Z,102157
2017-09-24T20:59:28.543Z,102155
2017-09-24T21:01:54.753Z,102158
2017-09-24T21:04:21.747Z,102160
2017-09-24T21:06:47.965Z,102158
2017-09-24T21:09:14.186Z,102164
2017-09-24T21:11:40.746Z,102163
2017-09-24T21:14:06.972Z,102165
2017-09-24T21:16:33.201Z,102160
2017-09-24T21:18:59.462Z,102164
2017-09-24T21:21:26.776Z,102164
2017-09-24T21:23:53.018Z,102166
2017-09-24T21:26:19.315Z,102175
2017-09-24T21:28:45.546Z,102177
2017-09-24T21:31:11.918Z,102175
2017-09-24T21:33:38.549Z,102178
2017-09-24T21:36:04.835Z,102179
2017-09-24T21:38:31.502Z,102177
2017-09-24T21:40:57.733Z,102178
2017-09-24T21:43:23.948Z,102180
2017-09-24T21:45:50.725Z,102181
2017-09-24T21:48:17.541Z,102175
2017-09-24T21:50:43.834Z,102180
2017-09-24T21:53:10.888Z,102183
2017-09-24T21:55:37.157Z,102176
2017-09-24T21:58:03.934Z,102175
2017-09-24T22:00:31.101Z,102177
2017-09-24T22:02:57.589Z,102180
2017-09-24T22:05:24.037Z,102179
2017-09-24T22:07:51.655Z,102176
2017-09-24T22:10:17.909Z,102181
2017-09-24T22:12:44.434Z,102174
2017-09-24T22:15:11.823Z,102180
2017-09-24T22:17:39.076Z,102180
2017-09-24T22:20:06.187Z,102179
2017-09-24T22:22:32.441Z,102180
2017-09-24T22:24:58.665Z,102181
2017-09-24T22:27:25.012Z,102180
2017-09-24T22:29:51.997Z,102183
2017-09-24T22:32:18.214Z,102178
2017-09-24T22:34:44.443Z,102182
2017-09-24T22:37:10.692Z,102179
2017-09-24T22:39:36.929Z,102180
2017-09-24T22:42:03.161Z,102182
2017-09-24T22:44:29.414Z,102185
2017-09-24T22:46:55.642Z,102186
2017-09-24T22:49:21.866Z,102187
2017-09-24T22:51:48.101Z,102185
2017-09-24T22:54:14.327Z,102185
2017-09-24T22:56:40.602Z,102183
2017-09-24T22:59:06.829Z,102180
2017-09-24T23:01:33.101Z,102180
2017-09-24T23:03:59.375Z,102176
2017-09-24T23:06:25.588Z,102179
2017-09-24T23:08:52.537Z,102179
2017-09-24T23:11:19.494Z,102173
2017-09-24T23:13:45.718Z,102175
2017-09-24T23:16:11.937Z,102171
2017-09-24T23:18:38.916Z,102165
2017-09-24T23:21:05.141Z,102168
2017-09-24T23:23:31.601Z,102160
2017-09-24T23:25:57.949Z,102166
2017-09-24T23:28:24.182Z,102166
2017-09-24T23:30:50.405Z,102164
2017-09-24T23:33:16.933Z,102161
2017-09-24T23:35:43.161Z,102160
2017-09-24T23:38:09.374Z,102155
2017-09-24T23:40:35.616Z,102153
2017-09-24T23:43:01.837Z,102149
2017-09-24T23:45:28.087Z,102148
2017-09-24T23:47:54.421Z,102155
2017-09-24T23:50:21.385Z,102143
2017-09-24T23:52:47.609Z,102144
2017-09-24T23:55:14.598Z,102145
2017-09-24T23:57:40.813Z,102148
